sensor_id;sensor_type;location;lat;lon;timestamp;pressure;altitude;pressure_sealevel;temperature;humidity
26865;BME280;40618;51.166;10.322;2023-03-13T00:01:23;96572.97;;;4.96;87.69
26865;BME280;40618;51.166;10.322;2023-03-13T00:03:51;96569.50;;;4.97;88.07
26865;BME280;40618;51.166;10.322;2023-03-13T00:06:17;96568.63;;;4.98;87.83
26865;BME280;40618;51.166;10.322;2023-03-13T00:08:44;96567.78;;;4.99;87.86
26865;BME280;40618;51.166;10.322;2023-03-13T00:11:11;96563.47;;;5.00;87.81
26865;BME280;40618;51.166;10.322;2023-03-13T00:13:39;96558.34;;;5.00;88.25
26865;BME280;40618;51.166;10.322;2023-03-13T00:16:09;96557.50;;;4.99;87.72
26865;BME280;40618;51.166;10.322;2023-03-13T00:18:37;96554.03;;;5.02;87.44
26865;BME280;40618;51.166;10.322;2023-03-13T00:21:05;96553.13;;;5.03;88.00
26865;BME280;40618;51.166;10.322;2023-03-13T00:23:33;96556.47;;;5.06;87.67
26865;BME280;40618;51.166;10.322;2023-03-13T00:26:04;96550.56;;;5.04;87.80
26865;BME280;40618;51.166;10.322;2023-03-13T00:28:32;96546.28;;;5.03;87.59
26865;BME280;40618;51.166;10.322;2023-03-13T00:31:16;96541.16;;;5.03;88.04
26865;BME280;40618;51.166;10.322;2023-03-13T00:33:48;96539.38;;;5.05;87.89
26865;BME280;40618;51.166;10.322;2023-03-13T00:36:30;96536.03;;;5.03;87.76
26865;BME280;40618;51.166;10.322;2023-03-13T00:38:59;96529.16;;;5.04;87.77
26865;BME280;40618;51.166;10.322;2023-03-13T00:41:28;96534.25;;;5.05;87.86
26865;BME280;40618;51.166;10.322;2023-03-13T00:43:55;96525.78;;;5.03;87.53
26865;BME280;40618;51.166;10.322;2023-03-13T00:46:23;96525.78;;;5.03;87.48
26865;BME280;40618;51.166;10.322;2023-03-13T00:48:51;96526.59;;;5.04;87.49
26865;BME280;40618;51.166;10.322;2023-03-13T00:51:18;96520.56;;;5.06;87.88
26865;BME280;40618;51.166;10.322;2023-03-13T00:53:46;96525.63;;;5.09;87.77
26865;BME280;40618;51.166;10.322;2023-03-13T00:56:16;96523.00;;;5.11;87.70
26865;BME280;40618;51.166;10.322;2023-03-13T00:58:44;96513.59;;;5.12;87.55
26865;BME280;40618;51.166;10.322;2023-03-13T01:01:19;96512.78;;;5.09;87.66
26865;BME280;40618;51.166;10.322;2023-03-13T01:03:50;96503.38;;;5.10;87.77
26865;BME280;40618;51.166;10.322;2023-03-13T01:06:20;96504.16;;;5.12;87.99
26865;BME280;40618;51.166;10.322;2023-03-13T01:08:48;96506.69;;;5.14;87.62
26865;BME280;40618;51.166;10.322;2023-03-13T01:11:17;96511.84;;;5.14;87.82
26865;BME280;40618;51.166;10.322;2023-03-13T01:13:45;96503.22;;;5.16;87.54
26865;BME280;40618;51.166;10.322;2023-03-13T01:16:14;96504.88;;;5.19;87.60
26865;BME280;40618;51.166;10.322;2023-03-13T01:18:44;96493.69;;;5.21;87.53
26865;BME280;40618;51.166;10.322;2023-03-13T01:21:12;96489.34;;;5.25;87.74
26865;BME280;40618;51.166;10.322;2023-03-13T01:23:39;96488.44;;;5.26;87.47
26865;BME280;40618;51.166;10.322;2023-03-13T01:26:06;96483.25;;;5.29;87.47
26865;BME280;40618;51.166;10.322;2023-03-13T01:28:33;96480.59;;;5.32;88.03
26865;BME280;40618;51.166;10.322;2023-03-13T01:30:59;96466.94;;;5.32;87.62
26865;BME280;40618;51.166;10.322;2023-03-13T01:33:34;96463.50;;;5.31;87.56
26865;BME280;40618;51.166;10.322;2023-03-13T01:36:01;96447.19;;;5.34;87.80
26865;BME280;40618;51.166;10.322;2023-03-13T01:38:27;96441.13;;;5.36;87.59
26865;BME280;40618;51.166;10.322;2023-03-13T01:40:53;96440.31;;;5.36;87.35
26865;BME280;40618;51.166;10.322;2023-03-13T01:43:22;96430.94;;;5.33;87.34
26865;BME280;40618;51.166;10.322;2023-03-13T01:51:29;96422.34;;;5.34;87.67
26865;BME280;40618;51.166;10.322;2023-03-13T01:54:38;96426.50;;;5.38;87.76
26865;BME280;40618;51.166;10.322;2023-03-13T01:57:40;96414.50;;;5.40;87.61
26865;BME280;40618;51.166;10.322;2023-03-13T02:00:14;96400.66;;;5.46;87.49
26865;BME280;40618;51.166;10.322;2023-03-13T02:02:47;96409.91;;;5.52;87.72
26865;BME280;40618;51.166;10.322;2023-03-13T02:05:19;96402.94;;;5.57;87.70
26865;BME280;40618;51.166;10.322;2023-03-13T02:07:50;96402.09;;;5.56;87.14
26865;BME280;40618;51.166;10.322;2023-03-13T02:10:21;96391.91;;;5.53;87.27
26865;BME280;40618;51.166;10.322;2023-03-13T02:12:49;96387.66;;;5.52;87.34
26865;BME280;40618;51.166;10.322;2023-03-13T02:15:19;96374.72;;;5.55;87.51
26865;BME280;40618;51.166;10.322;2023-03-13T02:17:46;96381.47;;;5.59;87.59
26865;BME280;40618;51.166;10.322;2023-03-13T02:20:15;96375.47;;;5.61;87.58
26865;BME280;40618;51.166;10.322;2023-03-13T02:25:44;96359.19;;;5.60;87.50
26865;BME280;40618;51.166;10.322;2023-03-13T02:28:38;96357.47;;;5.61;87.15
26865;BME280;40618;51.166;10.322;2023-03-13T02:31:05;96353.13;;;5.63;87.67
26865;BME280;40618;51.166;10.322;2023-03-13T02:33:36;96354.78;;;5.65;87.50
26865;BME280;40618;51.166;10.322;2023-03-13T02:36:04;96356.50;;;5.65;87.24
26865;BME280;40618;51.166;10.322;2023-03-13T02:38:34;96354.72;;;5.67;87.50
26865;BME280;40618;51.166;10.322;2023-03-13T02:41:05;96354.72;;;5.67;87.63
26865;BME280;40618;51.166;10.322;2023-03-13T02:43:35;96342.75;;;5.66;86.98
26865;BME280;40618;51.166;10.322;2023-03-13T02:48:47;96339.19;;;5.71;87.65
26865;BME280;40618;51.166;10.322;2023-03-13T02:51:23;96333.72;;;5.82;87.61
26865;BME280;40618;51.166;10.322;2023-03-13T02:53:57;96316.56;;;5.84;87.53
26865;BME280;40618;51.166;10.322;2023-03-13T02:56:27;96306.31;;;5.83;87.46
26865;BME280;40618;51.166;10.322;2023-03-13T02:58:55;96287.53;;;5.81;87.50
26865;BME280;40618;51.166;10.322;2023-03-13T03:01:21;96284.09;;;5.82;87.35
26865;BME280;40618;51.166;10.322;2023-03-13T03:03:46;96277.13;;;5.85;87.55
26865;BME280;40618;51.166;10.322;2023-03-13T03:06:13;96274.41;;;5.90;87.10
26865;BME280;40618;51.166;10.322;2023-03-13T03:08:39;96275.31;;;5.89;87.42
26865;BME280;40618;51.166;10.322;2023-03-13T03:11:06;96263.38;;;5.86;87.17
26865;BME280;40618;51.166;10.322;2023-03-13T03:13:32;96264.97;;;5.90;87.41
26865;BME280;40618;51.166;10.322;2023-03-13T03:15:58;96262.34;;;5.93;87.16
26865;BME280;40618;51.166;10.322;2023-03-13T03:18:23;96258.88;;;5.95;87.35
26865;BME280;40618;51.166;10.322;2023-03-13T03:20:50;96266.53;;;5.96;87.60
26865;BME280;40618;51.166;10.322;2023-03-13T03:23:15;96281.03;;;5.97;87.46
26865;BME280;40618;51.166;10.322;2023-03-13T03:25:41;96262.09;;;6.01;87.23
26865;BME280;40618;51.166;10.322;2023-03-13T03:28:06;96262.91;;;6.03;87.18
26865;BME280;40618;51.166;10.322;2023-03-13T03:30:32;96249.97;;;6.06;87.45
26865;BME280;40618;51.166;10.322;2023-03-13T03:32:58;96245.41;;;6.15;87.20
26865;BME280;40618;51.166;10.322;2023-03-13T03:35:23;96235.13;;;6.15;87.06
26865;BME280;40618;51.166;10.322;2023-03-13T03:37:49;96225.59;;;6.18;87.71
26865;BME280;40618;51.166;10.322;2023-03-13T03:40:14;96222.09;;;6.21;87.63
26865;BME280;40618;51.166;10.322;2023-03-13T03:42:40;96211.00;;;6.19;87.22
26865;BME280;40618;51.166;10.322;2023-03-13T03:45:06;96200.72;;;6.19;87.09
26865;BME280;40618;51.166;10.322;2023-03-13T03:47:32;96196.44;;;6.19;87.46
26865;BME280;40618;51.166;10.322;2023-03-13T03:49:57;96186.88;;;6.23;87.65
26865;BME280;40618;51.166;10.322;2023-03-13T03:52:23;96178.94;;;6.31;87.55
26865;BME280;40618;51.166;10.322;2023-03-13T03:54:49;96171.91;;;6.36;87.17
26865;BME280;40618;51.166;10.322;2023-03-13T03:57:14;96178.81;;;6.34;87.63
26865;BME280;40618;51.166;10.322;2023-03-13T03:59:40;96165.91;;;6.35;87.20
26865;BME280;40618;51.166;10.322;2023-03-13T04:02:05;96160.00;;;6.33;87.43
26865;BME280;40618;51.166;10.322;2023-03-13T04:04:31;96160.81;;;6.34;87.56
26865;BME280;40618;51.166;10.322;2023-03-13T04:06:57;96156.50;;;6.36;87.70
26865;BME280;40618;51.166;10.322;2023-03-13T04:09:22;96152.16;;;6.36;87.56
26865;BME280;40618;51.166;10.322;2023-03-13T04:11:48;96159.00;;;6.37;87.76
26865;BME280;40618;51.166;10.322;2023-03-13T04:14:14;96156.19;;;6.43;87.71
26865;BME280;40618;51.166;10.322;2023-03-13T04:16:39;96143.97;;;6.50;87.47
26865;BME280;40618;51.166;10.322;2023-03-13T04:19:05;96133.75;;;6.49;87.40
26865;BME280;40618;51.166;10.322;2023-03-13T04:21:31;96143.09;;;6.51;87.25
26865;BME280;40618;51.166;10.322;2023-03-13T04:23:57;96132.69;;;6.54;87.20
26865;BME280;40618;51.166;10.322;2023-03-13T04:26:22;96127.47;;;6.56;87.49
26865;BME280;40618;51.166;10.322;2023-03-13T04:28:48;96131.91;;;6.52;87.23
26865;BME280;40618;51.166;10.322;2023-03-13T04:31:14;96126.84;;;6.49;87.58
26865;BME280;40618;51.166;10.322;2023-03-13T04:33:39;96127.84;;;6.47;87.54
26865;BME280;40618;51.166;10.322;2023-03-13T04:36:05;96120.16;;;6.45;87.20
26865;BME280;40618;51.166;10.322;2023-03-13T04:38:31;96110.72;;;6.46;87.38
26865;BME280;40618;51.166;10.322;2023-03-13T04:40:56;96107.25;;;6.47;87.27
26865;BME280;40618;51.166;10.322;2023-03-13T04:43:22;96115.84;;;6.46;87.53
26865;BME280;40618;51.166;10.322;2023-03-13T04:45:51;96107.19;;;6.48;87.95
26865;BME280;40618;51.166;10.322;2023-03-13T04:48:19;96104.63;;;6.48;87.58
26865;BME280;40618;51.166;10.322;2023-03-13T04:50:46;96098.44;;;6.54;87.71
26865;BME280;40618;51.166;10.322;2023-03-13T04:53:13;96097.47;;;6.56;87.58
26865;BME280;40618;51.166;10.322;2023-03-13T04:55:39;96085.44;;;6.57;87.58
26865;BME280;40618;51.166;10.322;2023-03-13T04:58:05;96100.75;;;6.60;88.08
26865;BME280;40618;51.166;10.322;2023-03-13T05:00:30;96082.66;;;6.63;87.71
26865;BME280;40618;51.166;10.322;2023-03-13T05:02:56;96070.69;;;6.62;88.13
26865;BME280;40618;51.166;10.322;2023-03-13T05:05:22;96062.97;;;6.62;88.37
26865;BME280;40618;51.166;10.322;2023-03-13T05:07:47;96062.16;;;6.62;87.78
26865;BME280;40618;51.166;10.322;2023-03-13T05:10:13;96064.72;;;6.62;88.24
26865;BME280;40618;51.166;10.322;2023-03-13T05:12:39;96067.31;;;6.60;88.23
26865;BME280;40618;51.166;10.322;2023-03-13T05:15:05;96074.16;;;6.61;88.13
26865;BME280;40618;51.166;10.322;2023-03-13T05:17:30;96063.03;;;6.60;88.12
26865;BME280;40618;51.166;10.322;2023-03-13T05:19:56;96059.59;;;6.60;87.79
26865;BME280;40618;51.166;10.322;2023-03-13T05:22:22;96050.13;;;6.62;88.31
26865;BME280;40618;51.166;10.322;2023-03-13T05:24:47;96056.09;;;6.63;88.24
26865;BME280;40618;51.166;10.322;2023-03-13T05:27:13;96044.09;;;6.63;88.25
26865;BME280;40618;51.166;10.322;2023-03-13T05:29:38;96045.75;;;6.64;88.11
26865;BME280;40618;51.166;10.322;2023-03-13T05:32:04;96036.38;;;6.63;88.05
26865;BME280;40618;51.166;10.322;2023-03-13T05:34:30;96042.34;;;6.64;88.50
26865;BME280;40618;51.166;10.322;2023-03-13T05:36:55;96021.66;;;6.67;88.88
26865;BME280;40618;51.166;10.322;2023-03-13T05:39:21;96028.47;;;6.68;88.44
26865;BME280;40618;51.166;10.322;2023-03-13T05:41:47;96032.78;;;6.67;88.32
26865;BME280;40618;51.166;10.322;2023-03-13T05:44:12;96022.50;;;6.67;88.62
26865;BME280;40618;51.166;10.322;2023-03-13T05:46:38;96014.72;;;6.69;88.54
26865;BME280;40618;51.166;10.322;2023-03-13T05:49:03;96025.84;;;6.69;88.51
26865;BME280;40618;51.166;10.322;2023-03-13T05:51:29;96020.75;;;6.68;88.64
26865;BME280;40618;51.166;10.322;2023-03-13T05:53:55;96016.44;;;6.68;88.78
26865;BME280;40618;51.166;10.322;2023-03-13T05:56:20;96025.06;;;6.67;88.56
26865;BME280;40618;51.166;10.322;2023-03-13T05:58:46;96010.34;;;6.71;89.14
26865;BME280;40618;51.166;10.322;2023-03-13T06:01:12;96018.00;;;6.72;88.72
26865;BME280;40618;51.166;10.322;2023-03-13T06:03:38;96014.47;;;6.75;88.80
26865;BME280;40618;51.166;10.322;2023-03-13T06:06:04;96008.38;;;6.77;89.06
26865;BME280;40618;51.166;10.322;2023-03-13T06:08:29;96012.56;;;6.80;89.15
26865;BME280;40618;51.166;10.322;2023-03-13T06:11:00;96021.91;;;6.83;88.88
26865;BME280;40618;51.166;10.322;2023-03-13T06:13:27;96011.56;;;6.84;89.29
26865;BME280;40618;51.166;10.322;2023-03-13T06:15:55;96023.47;;;6.87;89.76
26865;BME280;40618;51.166;10.322;2023-03-13T06:18:22;96013.06;;;6.90;89.29
26865;BME280;40618;51.166;10.322;2023-03-13T06:20:54;96008.63;;;6.93;89.56
26865;BME280;40618;51.166;10.322;2023-03-13T06:23:21;96022.22;;;6.97;89.51
26865;BME280;40618;51.166;10.322;2023-03-13T06:25:47;96010.06;;;7.01;89.84
26865;BME280;40618;51.166;10.322;2023-03-13T06:28:13;95999.66;;;7.04;89.88
26865;BME280;40618;51.166;10.322;2023-03-13T06:30:39;96006.41;;;7.06;90.06
26865;BME280;40618;51.166;10.322;2023-03-13T06:33:05;95999.47;;;7.08;89.20
26865;BME280;40618;51.166;10.322;2023-03-13T06:35:30;96004.50;;;7.11;89.63
26865;BME280;40618;51.166;10.322;2023-03-13T06:37:56;95999.34;;;7.11;89.57
26865;BME280;40618;51.166;10.322;2023-03-13T06:40:22;95988.84;;;7.16;89.80
26865;BME280;40618;51.166;10.322;2023-03-13T06:42:47;95981.84;;;7.20;90.02
26865;BME280;40618;51.166;10.322;2023-03-13T06:45:13;95988.81;;;7.18;89.44
26865;BME280;40618;51.166;10.322;2023-03-13T06:47:38;95980.50;;;7.11;89.54
26865;BME280;40618;51.166;10.322;2023-03-13T06:50:04;95978.88;;;7.08;89.91
26865;BME280;40618;51.166;10.322;2023-03-13T06:52:30;95989.25;;;7.07;89.74
26865;BME280;40618;51.166;10.322;2023-03-13T06:54:56;95977.22;;;7.07;90.23
26865;BME280;40618;51.166;10.322;2023-03-13T06:57:21;95971.09;;;7.10;90.46
26865;BME280;40618;51.166;10.322;2023-03-13T06:59:47;95965.88;;;7.11;89.63
26865;BME280;40618;51.166;10.322;2023-03-13T07:02:14;95970.06;;;7.14;89.81
26865;BME280;40618;51.166;10.322;2023-03-13T07:04:40;95975.81;;;7.21;90.14
26865;BME280;40618;51.166;10.322;2023-03-13T07:07:06;95978.25;;;7.24;90.09
26865;BME280;40618;51.166;10.322;2023-03-13T07:09:31;95979.81;;;7.28;90.12
26865;BME280;40618;51.166;10.322;2023-03-13T07:11:57;95972.88;;;7.30;90.72
26865;BME280;40618;51.166;10.322;2023-03-13T07:14:23;95961.63;;;7.33;90.63
26865;BME280;40618;51.166;10.322;2023-03-13T07:16:49;95974.28;;;7.37;90.21
26865;BME280;40618;51.166;10.322;2023-03-13T07:19:15;95971.59;;;7.40;90.55
26865;BME280;40618;51.166;10.322;2023-03-13T07:21:41;95968.03;;;7.43;90.54
26865;BME280;40618;51.166;10.322;2023-03-13T07:24:08;95974.00;;;7.45;90.04
26865;BME280;40618;51.166;10.322;2023-03-13T07:26:34;95968.63;;;7.50;90.73
26865;BME280;40618;51.166;10.322;2023-03-13T07:28:59;95985.63;;;7.54;90.76
26865;BME280;40618;51.166;10.322;2023-03-13T07:31:25;95976.81;;;7.59;90.75
26865;BME280;40618;51.166;10.322;2023-03-13T07:33:53;95976.75;;;7.61;90.71
26865;BME280;40618;51.166;10.322;2023-03-13T07:36:21;95974.06;;;7.64;90.81
26865;BME280;40618;51.166;10.322;2023-03-13T07:38:50;95967.88;;;7.68;91.33
26865;BME280;40618;51.166;10.322;2023-03-13T07:41:17;95974.75;;;7.68;90.32
26865;BME280;40618;51.166;10.322;2023-03-13T07:43:44;95950.59;;;7.70;90.51
26865;BME280;40618;51.166;10.322;2023-03-13T07:46:15;95957.44;;;7.71;90.85
26865;BME280;40618;51.166;10.322;2023-03-13T07:48:46;95953.03;;;7.73;91.33
26865;BME280;40618;51.166;10.322;2023-03-13T07:51:14;95948.66;;;7.75;91.51
26865;BME280;40618;51.166;10.322;2023-03-13T07:53:44;95959.72;;;7.77;91.39
26865;BME280;40618;51.166;10.322;2023-03-13T07:56:16;95957.03;;;7.81;90.96
26865;BME280;40618;51.166;10.322;2023-03-13T07:58:43;95966.31;;;7.85;90.78
26865;BME280;40618;51.166;10.322;2023-03-13T08:01:23;95944.66;;;7.89;91.54
26865;BME280;40618;51.166;10.322;2023-03-13T08:03:50;95947.84;;;7.94;90.88
26865;BME280;40618;51.166;10.322;2023-03-13T08:06:19;95951.28;;;7.94;91.44
26865;BME280;40618;51.166;10.322;2023-03-13T08:08:47;95950.31;;;7.97;91.52
26865;BME280;40618;51.166;10.322;2023-03-13T08:11:16;95960.47;;;8.00;91.46
26865;BME280;40618;51.166;10.322;2023-03-13T08:13:43;95940.56;;;8.04;91.33
26865;BME280;40618;51.166;10.322;2023-03-13T08:16:13;95960.19;;;8.06;91.54
26865;BME280;40618;51.166;10.322;2023-03-13T08:18:43;95960.19;;;8.06;91.49
26865;BME280;40618;51.166;10.322;2023-03-13T08:21:18;95950.59;;;8.10;91.20
26865;BME280;40618;51.166;10.322;2023-03-13T08:23:48;95947.81;;;8.14;91.16
26865;BME280;40618;51.166;10.322;2023-03-13T08:26:19;95954.63;;;8.16;91.68
26865;BME280;40618;51.166;10.322;2023-03-13T08:28:47;95962.22;;;8.19;90.92
26865;BME280;40618;51.166;10.322;2023-03-13T08:31:19;95949.22;;;8.22;91.83
26865;BME280;40618;51.166;10.322;2023-03-13T08:33:52;95939.66;;;8.24;91.62
26865;BME280;40618;51.166;10.322;2023-03-13T08:36:23;95944.72;;;8.27;91.52
26865;BME280;40618;51.166;10.322;2023-03-13T08:38:52;95934.31;;;8.28;92.00
26865;BME280;40618;51.166;10.322;2023-03-13T08:41:27;95938.53;;;8.29;91.82
26865;BME280;40618;51.166;10.322;2023-03-13T08:43:56;95941.84;;;8.33;92.33
26865;BME280;40618;51.166;10.322;2023-03-13T08:46:22;95959.00;;;8.34;91.85
26865;BME280;40618;51.166;10.322;2023-03-13T08:48:49;95961.41;;;8.37;91.49
26865;BME280;40618;51.166;10.322;2023-03-13T08:51:17;95963.94;;;8.39;91.88
26865;BME280;40618;51.166;10.322;2023-03-13T08:53:44;95971.59;;;8.40;91.95
26865;BME280;40618;51.166;10.322;2023-03-13T08:56:14;95978.44;;;8.41;91.58
26865;BME280;40618;51.166;10.322;2023-03-13T08:58:43;95966.31;;;8.43;91.62
26865;BME280;40618;51.166;10.322;2023-03-13T09:01:13;95974.75;;;8.47;91.71
26865;BME280;40618;51.166;10.322;2023-03-13T09:03:40;95989.41;;;8.46;91.77
26865;BME280;40618;51.166;10.322;2023-03-13T09:06:07;95992.00;;;8.46;91.65
26865;BME280;40618;51.166;10.322;2023-03-13T09:08:33;95984.94;;;8.50;92.07
26865;BME280;40618;51.166;10.322;2023-03-13T09:11:06;95995.22;;;8.52;91.71
26865;BME280;40618;51.166;10.322;2023-03-13T09:13:36;95982.16;;;8.55;92.40
26865;BME280;40618;51.166;10.322;2023-03-13T09:16:05;95978.53;;;8.59;92.25
26865;BME280;40618;51.166;10.322;2023-03-13T09:18:33;95990.38;;;8.63;92.16
26865;BME280;40618;51.166;10.322;2023-03-13T09:20:59;95991.03;;;8.68;92.41
26865;BME280;40618;51.166;10.322;2023-03-13T09:23:25;95989.81;;;8.75;92.55
26865;BME280;40618;51.166;10.322;2023-03-13T09:25:52;95989.59;;;8.80;91.79
26865;BME280;40618;51.166;10.322;2023-03-13T09:28:19;95983.53;;;8.81;92.23
26865;BME280;40618;51.166;10.322;2023-03-13T09:30:46;95986.03;;;8.83;91.66
26865;BME280;40618;51.166;10.322;2023-03-13T09:33:14;95988.34;;;8.89;91.76
26865;BME280;40618;51.166;10.322;2023-03-13T09:35:40;95990.63;;;8.95;92.45
26865;BME280;40618;51.166;10.322;2023-03-13T09:38:06;95984.50;;;8.97;92.47
26865;BME280;40618;51.166;10.322;2023-03-13T09:40:45;95991.25;;;9.00;92.38
26865;BME280;40618;51.166;10.322;2023-03-13T09:43:24;95971.31;;;9.04;92.26
26865;BME280;40618;51.166;10.322;2023-03-13T09:46:07;95966.88;;;9.06;91.89
26865;BME280;40618;51.166;10.322;2023-03-13T09:48:43;95957.03;;;9.14;92.44
26865;BME280;40618;51.166;10.322;2023-03-13T09:51:28;95948.06;;;9.21;91.95
26865;BME280;40618;51.166;10.322;2023-03-13T09:54:02;95959.88;;;9.27;91.83
26865;BME280;40618;51.166;10.322;2023-03-13T10:02:32;95906.50;;;9.61;92.39
26865;BME280;40618;51.166;10.322;2023-03-13T10:05:13;95892.88;;;9.75;92.41
26865;BME280;40618;51.166;10.322;2023-03-13T10:07:46;95908.75;;;9.85;92.24
26865;BME280;40618;51.166;10.322;2023-03-13T10:10:15;95895.41;;;9.92;92.12
26865;BME280;40618;51.166;10.322;2023-03-13T10:12:52;95899.56;;;9.95;91.71
26865;BME280;40618;51.166;10.322;2023-03-13T10:15:45;95900.25;;;9.98;91.75
26865;BME280;40618;51.166;10.322;2023-03-13T10:18:20;95897.41;;;10.03;92.05
26865;BME280;40618;51.166;10.322;2023-03-13T10:20:48;95898.00;;;10.08;91.58
26865;BME280;40618;51.166;10.322;2023-03-13T10:23:26;95902.78;;;10.16;91.60
26865;BME280;40618;51.166;10.322;2023-03-13T10:26:13;95899.94;;;10.21;91.50
26865;BME280;40618;51.166;10.322;2023-03-13T10:28:41;95907.56;;;10.24;91.16
26865;BME280;40618;51.166;10.322;2023-03-13T10:31:14;95890.19;;;10.26;90.96
26865;BME280;40618;51.166;10.322;2023-03-13T10:33:48;95898.88;;;10.25;90.84
26865;BME280;40618;51.166;10.322;2023-03-13T10:36:13;95910.88;;;10.26;91.22
26865;BME280;40618;51.166;10.322;2023-03-13T10:38:49;95898.72;;;10.28;91.10
26865;BME280;40618;51.166;10.322;2023-03-13T10:41:25;95893.47;;;10.29;90.87
26865;BME280;40618;51.166;10.322;2023-03-13T10:43:54;95898.47;;;10.32;91.20
26865;BME280;40618;51.166;10.322;2023-03-13T10:46:29;95888.81;;;10.36;91.10
26865;BME280;40618;51.166;10.322;2023-03-13T10:49:00;95885.22;;;10.39;90.42
26865;BME280;40618;51.166;10.322;2023-03-13T10:51:37;95891.22;;;10.39;90.68
26865;BME280;40618;51.166;10.322;2023-03-13T10:54:22;95885.28;;;10.37;90.36
26865;BME280;40618;51.166;10.322;2023-03-13T10:56:49;95893.81;;;10.39;90.58
26865;BME280;40618;51.166;10.322;2023-03-13T10:59:22;95900.59;;;10.42;90.41
26865;BME280;40618;51.166;10.322;2023-03-13T11:01:50;95897.91;;;10.43;90.18
26865;BME280;40618;51.166;10.322;2023-03-13T11:04:35;95901.31;;;10.44;90.57
26865;BME280;40618;51.166;10.322;2023-03-13T11:07:09;95893.56;;;10.44;90.30
26865;BME280;40618;51.166;10.322;2023-03-13T11:09:40;95899.50;;;10.46;90.39
26865;BME280;40618;51.166;10.322;2023-03-13T11:12:19;95891.81;;;10.44;89.79
26865;BME280;40618;51.166;10.322;2023-03-13T11:14:45;95902.91;;;10.46;90.17
26865;BME280;40618;51.166;10.322;2023-03-13T11:17:32;95886.56;;;10.46;90.23
26865;BME280;40618;51.166;10.322;2023-03-13T11:28:51;95880.72;;;10.42;89.81
26865;BME280;40618;51.166;10.322;2023-03-13T11:34:21;95861.25;;;10.51;90.54
26865;BME280;40618;51.166;10.322;2023-03-13T11:47:51;95841.78;;;10.76;89.94
26865;BME280;40618;51.166;10.322;2023-03-13T11:50:42;95840.59;;;10.81;89.89
26865;BME280;40618;51.166;10.322;2023-03-13T11:53:17;95838.00;;;10.81;90.17
26865;BME280;40618;51.166;10.322;2023-03-13T11:56:21;95847.41;;;10.82;89.64
26865;BME280;40618;51.166;10.322;2023-03-13T11:59:18;95840.41;;;10.84;89.65
26865;BME280;40618;51.166;10.322;2023-03-13T12:04:48;95837.81;;;10.84;89.86
26865;BME280;40618;51.166;10.322;2023-03-13T12:07:24;95833.38;;;10.87;89.87
26865;BME280;40618;51.166;10.322;2023-03-13T12:09:59;95850.59;;;10.88;89.81
26865;BME280;40618;51.166;10.322;2023-03-13T12:15:29;95830.94;;;10.99;89.47
26865;BME280;40618;51.166;10.322;2023-03-13T12:18:08;95822.97;;;11.03;89.55
26865;BME280;40618;51.166;10.322;2023-03-13T12:20:52;95805.69;;;11.03;89.64
26865;BME280;40618;51.166;10.322;2023-03-13T12:24:03;95808.19;;;11.05;89.32
26865;BME280;40618;51.166;10.322;2023-03-13T12:26:57;95819.28;;;11.07;89.48
26865;BME280;40618;51.166;10.322;2023-03-13T12:38:05;95808.97;;;11.21;89.02
26865;BME280;40618;51.166;10.322;2023-03-13T12:43:31;95802.00;;;11.22;89.34
26865;BME280;40618;51.166;10.322;2023-03-13T12:51:11;95780.28;;;11.24;89.23
26865;BME280;40618;51.166;10.322;2023-03-13T12:59:47;95769.25;;;11.21;88.92
26865;BME280;40618;51.166;10.322;2023-03-13T13:02:22;95757.41;;;11.16;89.05
26865;BME280;40618;51.166;10.322;2023-03-13T13:04:50;95772.22;;;11.14;88.96
26865;BME280;40618;51.166;10.322;2023-03-13T13:07:36;95753.16;;;11.15;89.34
26865;BME280;40618;51.166;10.322;2023-03-13T13:12:35;95755.66;;;11.17;88.83
26865;BME280;40618;51.166;10.322;2023-03-13T13:15:25;95746.22;;;11.16;89.08
26865;BME280;40618;51.166;10.322;2023-03-13T13:17:59;95741.03;;;11.16;89.19
26865;BME280;40618;51.166;10.322;2023-03-13T13:23:40;95732.59;;;11.12;89.10
26865;BME280;40618;51.166;10.322;2023-03-13T13:40:07;95726.31;;;11.16;88.86
26865;BME280;40618;51.166;10.322;2023-03-13T13:47:43;95734.09;;;11.16;89.00
26865;BME280;40618;51.166;10.322;2023-03-13T13:50:21;95727.31;;;11.14;89.24
26865;BME280;40618;51.166;10.322;2023-03-13T13:52:52;95725.59;;;11.14;88.87
26865;BME280;40618;51.166;10.322;2023-03-13T13:58:21;95728.91;;;11.16;88.98
26865;BME280;40618;51.166;10.322;2023-03-13T14:00:58;95719.41;;;11.17;88.88
26865;BME280;40618;51.166;10.322;2023-03-13T14:03:28;95715.94;;;11.16;89.42
26865;BME280;40618;51.166;10.322;2023-03-13T14:06:01;95724.66;;;11.15;88.65
26865;BME280;40618;51.166;10.322;2023-03-13T14:08:39;95718.94;;;11.10;89.09
26865;BME280;40618;51.166;10.322;2023-03-13T14:11:23;95717.44;;;11.06;89.01
26865;BME280;40618;51.166;10.322;2023-03-13T14:14:15;95724.66;;;11.01;89.22
26865;BME280;40618;51.166;10.322;2023-03-13T14:16:46;95720.47;;;10.98;89.01
26865;BME280;40618;51.166;10.322;2023-03-13T14:19:24;95724.75;;;10.99;89.22
26865;BME280;40618;51.166;10.322;2023-03-13T14:22:09;95717.97;;;10.97;89.09
26865;BME280;40618;51.166;10.322;2023-03-13T14:24:36;95705.97;;;10.96;89.13
26865;BME280;40618;51.166;10.322;2023-03-13T14:27:13;95705.97;;;10.96;89.11
26865;BME280;40618;51.166;10.322;2023-03-13T14:29:40;95703.47;;;10.94;89.49
26865;BME280;40618;51.166;10.322;2023-03-13T14:32:06;95707.81;;;10.94;89.33
26865;BME280;40618;51.166;10.322;2023-03-13T14:34:32;95698.47;;;10.91;89.31
26865;BME280;40618;51.166;10.322;2023-03-13T14:36:58;95688.94;;;10.92;89.47
26865;BME280;40618;51.166;10.322;2023-03-13T14:42:05;95680.59;;;10.87;89.37
26865;BME280;40618;51.166;10.322;2023-03-13T14:44:35;95684.13;;;10.86;89.52
26865;BME280;40618;51.166;10.322;2023-03-13T14:47:20;95679.13;;;10.82;89.33
26865;BME280;40618;51.166;10.322;2023-03-13T14:49:55;95676.72;;;10.79;89.72
26865;BME280;40618;51.166;10.322;2023-03-13T14:52:25;95677.56;;;10.80;89.70